Time;durP1;ratioP1;P1;durP2;ratioP2;P2;SDS_P1;SDS_P2;PMS_P1;PMS_P2;Temp;Humidity;BMP_temperature;BMP_pressure;BME280_temperature;BME280_humidity;BME280_pressure;Samples;Min_cycle;Max_cycle;Signal;HPM_P1;HPM_P2
2024/02/29 00:01:47;;;;;;;14.57;11.37;;;;;;;;;;5012372;28;20185;-57
2024/02/29 00:04:13;;;;;;;14.17;9.97;;;;;;;;;;5019100;28;20604;-57
2024/02/29 00:06:40;;;;;;;13.83;10.27;;;;;;;;;;5029179;28;20269;-57
2024/02/29 00:09:07;;;;;;;11.87;9.07;;;;;;;;;;5030841;28;20212;-57
2024/02/29 00:11:33;;;;;;;12.93;9.77;;;;;;;;;;5030531;28;20162;-58
2024/02/29 00:13:59;;;;;;;13.70;9.80;;;;;;;;;;5031098;28;20173;-57
2024/02/29 00:16:25;;;;;;;12.33;8.87;;;;;;;;;;5030686;28;20181;-58
2024/02/29 00:18:52;;;;;;;14.03;9.50;;;;;;;;;;5030674;28;20601;-57
2024/02/29 00:21:18;;;;;;;12.73;9.37;;;;;;;;;;5030748;28;20582;-57
2024/02/29 00:23:44;;;;;;;12.57;9.93;;;;;;;;;;5028249;28;20205;-57
2024/02/29 00:26:10;;;;;;;12.37;9.77;;;;;;;;;;5024649;28;20623;-57
2024/02/29 00:28:36;;;;;;;12.50;8.97;;;;;;;;;;5019438;28;20260;-56
2024/02/29 00:31:03;;;;;;;11.13;8.77;;;;;;;;;;5026188;28;20647;-57
2024/02/29 00:33:29;;;;;;;10.23;8.50;;;;;;;;;;5029377;28;20177;-57
2024/02/29 00:35:55;;;;;;;14.13;9.87;;;;;;;;;;5029116;28;20170;-57
2024/02/29 00:38:21;;;;;;;10.90;8.70;;;;;;;;;;5028802;28;20193;-57
2024/02/29 00:40:47;;;;;;;12.57;9.00;;;;;;;;;;5028887;28;20197;-57
2024/02/29 00:43:13;;;;;;;10.93;8.60;;;;;;;;;;5030309;28;20938;-57
2024/02/29 00:45:39;;;;;;;12.40;9.67;;;;;;;;;;5029639;28;20222;-57
2024/02/29 00:48:06;;;;;;;10.90;8.03;;;;;;;;;;5028145;28;20220;-53
2024/02/29 00:50:33;;;;;;;11.70;9.03;;;;;;;;;;5028933;28;20189;-52
2024/02/29 00:52:59;;;;;;;11.37;7.63;;;;;;;;;;5021589;28;20189;-54
2024/02/29 00:55:25;;;;;;;11.47;8.03;;;;;;;;;;5028503;28;20535;-53
2024/02/29 00:57:51;;;;;;;11.37;8.43;;;;;;;;;;5020464;28;20198;-53
2024/02/29 01:00:18;;;;;;;11.70;8.20;;;;;;;;;;5027263;28;20178;-53
2024/02/29 01:02:44;;;;;;;10.73;8.07;;;;;;;;;;5024082;28;20680;-55
2024/02/29 01:05:11;;;;;;;11.83;8.43;;;;;;;;;;5028796;28;20186;-53
2024/02/29 01:07:40;;;;;;;11.17;8.13;;;;;;;;;;5030417;28;20205;-54
2024/02/29 01:10:07;;;;;;;12.87;9.30;;;;;;;;;;5027607;28;20174;-52
2024/02/29 01:12:39;;;;;;;10.70;7.90;;;;;;;;;;5030242;28;20951;-53
2024/02/29 01:15:05;;;;;;;8.57;6.77;;;;;;;;;;5029358;28;20182;-52
2024/02/29 01:17:31;;;;;;;10.03;7.70;;;;;;;;;;5017461;28;20304;-53
2024/02/29 01:19:57;;;;;;;9.90;7.40;;;;;;;;;;5027169;28;20305;-53
2024/02/29 01:22:24;;;;;;;9.80;7.63;;;;;;;;;;5030052;28;20178;-53
2024/02/29 01:24:50;;;;;;;8.13;6.70;;;;;;;;;;5027978;28;20743;-54
2024/02/29 01:27:17;;;;;;;10.00;7.50;;;;;;;;;;5029889;28;20185;-53
2024/02/29 01:29:43;;;;;;;9.07;7.17;;;;;;;;;;5028593;28;20216;-53
2024/02/29 01:32:09;;;;;;;11.20;7.67;;;;;;;;;;5029358;28;20942;-53
2024/02/29 01:34:35;;;;;;;8.03;7.07;;;;;;;;;;5028690;28;20637;-52
2024/02/29 01:37:02;;;;;;;9.87;7.33;;;;;;;;;;5024915;28;20230;-52
2024/02/29 01:39:28;;;;;;;10.10;7.03;;;;;;;;;;5018463;28;20642;-57
2024/02/29 01:41:55;;;;;;;9.63;7.07;;;;;;;;;;5015120;28;20232;-54
2024/02/29 01:44:22;;;;;;;7.90;6.30;;;;;;;;;;5016395;28;20692;-52
2024/02/29 01:46:48;;;;;;;8.60;7.03;;;;;;;;;;5029066;28;20204;-52
2024/02/29 01:49:15;;;;;;;9.10;6.70;;;;;;;;;;5023371;28;20252;-53
2024/02/29 01:51:42;;;;;;;7.97;6.50;;;;;;;;;;5014213;28;20192;-53
2024/02/29 01:54:08;;;;;;;11.23;6.97;;;;;;;;;;5029156;28;20645;-52
2024/02/29 01:56:34;;;;;;;8.93;6.83;;;;;;;;;;5027100;28;20269;-53
2024/02/29 01:59:00;;;;;;;8.80;6.30;;;;;;;;;;5028947;28;20177;-57
2024/02/29 02:01:26;;;;;;;9.63;6.37;;;;;;;;;;5028141;28;20601;-57
2024/02/29 02:03:52;;;;;;;9.50;5.93;;;;;;;;;;5029299;28;20186;-57
2024/02/29 02:06:18;;;;;;;9.07;6.83;;;;;;;;;;5028954;28;20588;-57
2024/02/29 02:08:45;;;;;;;7.93;5.83;;;;;;;;;;5028221;28;20292;-56
2024/02/29 02:11:11;;;;;;;10.00;7.00;;;;;;;;;;5023339;28;20284;-57
2024/02/29 02:13:37;;;;;;;8.23;6.47;;;;;;;;;;5023442;28;20182;-56
2024/02/29 02:16:03;;;;;;;7.43;6.17;;;;;;;;;;5019183;28;20198;-57
2024/02/29 02:18:29;;;;;;;7.63;5.87;;;;;;;;;;5024328;28;20213;-56
2024/02/29 02:20:55;;;;;;;9.70;6.90;;;;;;;;;;5027705;28;20269;-57
2024/02/29 02:23:21;;;;;;;9.33;6.23;;;;;;;;;;5023440;28;20615;-56
2024/02/29 02:25:48;;;;;;;7.13;5.83;;;;;;;;;;5025660;28;20186;-57
2024/02/29 02:28:15;;;;;;;8.80;6.20;;;;;;;;;;5027006;28;20608;-57
2024/02/29 02:30:41;;;;;;;8.37;6.03;;;;;;;;;;5023639;28;20275;-57
2024/02/29 02:33:07;;;;;;;9.83;6.47;;;;;;;;;;5027708;28;20648;-56
2024/02/29 02:35:34;;;;;;;8.77;6.20;;;;;;;;;;5020283;28;20191;-57
2024/02/29 02:38:03;;;;;;;8.80;6.77;;;;;;;;;;5027731;28;20182;-57
2024/02/29 02:40:29;;;;;;;8.97;6.03;;;;;;;;;;5023924;28;20181;-57
2024/02/29 02:42:55;;;;;;;8.37;6.60;;;;;;;;;;5024743;28;20684;-57
2024/02/29 02:45:21;;;;;;;9.07;6.50;;;;;;;;;;5026493;28;20894;-57
2024/02/29 02:47:47;;;;;;;9.60;6.97;;;;;;;;;;5019630;28;20217;-57
2024/02/29 02:50:14;;;;;;;8.93;6.27;;;;;;;;;;5027558;28;20593;-57
2024/02/29 02:52:40;;;;;;;10.23;7.17;;;;;;;;;;5027146;28;20185;-57
2024/02/29 02:55:06;;;;;;;8.33;6.77;;;;;;;;;;5026856;28;20275;-56
2024/02/29 02:57:32;;;;;;;11.50;7.17;;;;;;;;;;5024519;28;20188;-57
2024/02/29 02:59:58;;;;;;;8.47;6.67;;;;;;;;;;5025014;28;20566;-57
2024/02/29 03:02:24;;;;;;;8.60;6.30;;;;;;;;;;5027419;28;20182;-57
2024/02/29 03:04:50;;;;;;;9.63;5.90;;;;;;;;;;5026799;28;20200;-57
2024/02/29 03:07:16;;;;;;;9.80;7.37;;;;;;;;;;5027410;28;20185;-57
2024/02/29 03:09:42;;;;;;;8.87;6.77;;;;;;;;;;5026188;28;20681;-55
2024/02/29 03:12:08;;;;;;;8.93;6.70;;;;;;;;;;5027293;28;20173;-52
2024/02/29 03:14:34;;;;;;;9.47;7.23;;;;;;;;;;5022778;28;20196;-53
2024/02/29 03:17:00;;;;;;;8.93;7.00;;;;;;;;;;5027487;28;20567;-51
2024/02/29 03:19:26;;;;;;;11.30;6.60;;;;;;;;;;5022148;28;20246;-53
2024/02/29 03:21:52;;;;;;;9.77;6.80;;;;;;;;;;5028330;28;20208;-53
2024/02/29 03:24:18;;;;;;;8.10;6.80;;;;;;;;;;5026753;28;20185;-53
2024/02/29 03:26:44;;;;;;;8.00;6.30;;;;;;;;;;5026647;28;20204;-56
2024/02/29 03:29:11;;;;;;;9.13;6.40;;;;;;;;;;5027395;28;20320;-53
2024/02/29 03:31:37;;;;;;;8.47;6.50;;;;;;;;;;5026875;28;20629;-54
2024/02/29 03:34:03;;;;;;;9.33;6.60;;;;;;;;;;5027070;28;20165;-52
2024/02/29 03:36:29;;;;;;;8.90;6.50;;;;;;;;;;5027366;28;20256;-51
2024/02/29 03:38:56;;;;;;;10.07;7.00;;;;;;;;;;5027550;28;20214;-52
2024/02/29 03:41:22;;;;;;;11.83;7.77;;;;;;;;;;5028791;28;20182;-55
2024/02/29 03:43:48;;;;;;;8.83;6.47;;;;;;;;;;5030988;28;20213;-54
2024/02/29 03:46:14;;;;;;;11.40;7.23;;;;;;;;;;5030968;28;20190;-52
2024/02/29 03:48:40;;;;;;;8.90;6.93;;;;;;;;;;5031431;28;20198;-54
2024/02/29 03:51:06;;;;;;;10.80;7.57;;;;;;;;;;5031418;28;20613;-52
2024/02/29 03:53:32;;;;;;;9.70;7.27;;;;;;;;;;5031585;28;20205;-53
2024/02/29 03:55:58;;;;;;;10.77;6.80;;;;;;;;;;5030732;28;20253;-52
2024/02/29 03:58:24;;;;;;;8.83;7.17;;;;;;;;;;5031038;28;20559;-51
2024/02/29 04:00:50;;;;;;;11.07;7.17;;;;;;;;;;5031181;28;20186;-52
2024/02/29 04:03:16;;;;;;;9.50;7.13;;;;;;;;;;5030472;28;20177;-53
2024/02/29 04:05:43;;;;;;;12.07;7.13;;;;;;;;;;5015382;28;20183;-53
2024/02/29 04:08:12;;;;;;;9.43;7.10;;;;;;;;;;5029723;28;20661;-53
2024/02/29 04:10:38;;;;;;;8.43;6.37;;;;;;;;;;5030812;28;20542;-53
2024/02/29 04:13:05;;;;;;;9.20;6.83;;;;;;;;;;5029455;28;20185;-53
2024/02/29 04:15:31;;;;;;;10.17;7.70;;;;;;;;;;5030586;28;20178;-52
2024/02/29 04:17:57;;;;;;;11.60;7.80;;;;;;;;;;5030438;28;20185;-53
2024/02/29 04:20:23;;;;;;;9.43;7.63;;;;;;;;;;5029416;28;20316;-60
2024/02/29 04:22:49;;;;;;;9.43;6.60;;;;;;;;;;5030075;28;20255;-61
2024/02/29 04:25:16;;;;;;;9.53;6.77;;;;;;;;;;5029916;28;20182;-59
2024/02/29 04:27:42;;;;;;;11.63;7.60;;;;;;;;;;5030971;28;20232;-61
2024/02/29 04:30:09;;;;;;;10.17;7.03;;;;;;;;;;5030875;28;20186;-61
2024/02/29 04:32:35;;;;;;;11.03;7.90;;;;;;;;;;5029084;28;20182;-61
2024/02/29 04:35:01;;;;;;;8.50;6.53;;;;;;;;;;5024091;28;20197;-61
2024/02/29 04:37:27;;;;;;;9.57;7.50;;;;;;;;;;5025321;28;20173;-62
2024/02/29 04:39:53;;;;;;;9.57;7.50;;;;;;;;;;5028394;28;20189;-60
2024/02/29 04:42:19;;;;;;;10.90;8.10;;;;;;;;;;5030291;28;20201;-60
2024/02/29 04:44:45;;;;;;;10.83;7.77;;;;;;;;;;5030116;28;20222;-60
2024/02/29 04:47:11;;;;;;;9.60;7.53;;;;;;;;;;5029136;28;20182;-60
2024/02/29 04:49:37;;;;;;;9.50;7.37;;;;;;;;;;5028564;28;20224;-61
2024/02/29 04:52:03;;;;;;;11.37;7.93;;;;;;;;;;5029684;28;20231;-60
2024/02/29 04:54:29;;;;;;;13.67;8.20;;;;;;;;;;5029889;28;20832;-59
2024/02/29 04:56:55;;;;;;;13.60;7.93;;;;;;;;;;5030160;28;20253;-60
2024/02/29 04:59:21;;;;;;;9.80;7.30;;;;;;;;;;5030256;28;20182;-61
2024/02/29 05:01:48;;;;;;;9.00;7.30;;;;;;;;;;5029771;28;20174;-59
2024/02/29 05:04:15;;;;;;;11.07;7.47;;;;;;;;;;5030146;28;20634;-61
2024/02/29 05:06:41;;;;;;;9.47;7.20;;;;;;;;;;5029598;28;20182;-61
2024/02/29 05:09:07;;;;;;;10.23;7.73;;;;;;;;;;5028265;28;20614;-60
2024/02/29 05:11:33;;;;;;;11.30;7.57;;;;;;;;;;5028518;28;20179;-60
2024/02/29 05:13:59;;;;;;;10.03;7.60;;;;;;;;;;5029909;28;20614;-61
2024/02/29 05:16:25;;;;;;;10.43;8.07;;;;;;;;;;5030170;28;20174;-60
2024/02/29 05:18:51;;;;;;;11.00;8.10;;;;;;;;;;5029323;28;20233;-61
2024/02/29 05:21:17;;;;;;;10.33;7.50;;;;;;;;;;5025400;28;20178;-60
2024/02/29 05:23:43;;;;;;;10.03;7.50;;;;;;;;;;5027365;28;20204;-59
2024/02/29 05:26:11;;;;;;;9.67;6.90;;;;;;;;;;5028909;28;20641;-61
2024/02/29 05:28:37;;;;;;;10.27;6.97;;;;;;;;;;5029932;28;20592;-53
2024/02/29 05:31:03;;;;;;;10.10;7.33;;;;;;;;;;5029291;28;20280;-52
2024/02/29 05:33:29;;;;;;;13.57;7.40;;;;;;;;;;5029318;28;20604;-52
2024/02/29 05:35:55;;;;;;;9.77;7.63;;;;;;;;;;5029629;28;20169;-51
2024/02/29 05:38:21;;;;;;;9.83;6.40;;;;;;;;;;5029440;28;20216;-52
2024/02/29 05:40:48;;;;;;;8.20;6.63;;;;;;;;;;5030721;28;20205;-61
2024/02/29 05:43:14;;;;;;;8.87;6.53;;;;;;;;;;5029037;28;20212;-59
2024/02/29 05:45:40;;;;;;;9.07;6.30;;;;;;;;;;5029502;28;20248;-62
2024/02/29 05:48:06;;;;;;;10.93;7.03;;;;;;;;;;5028847;28;20217;-61
2024/02/29 05:50:32;;;;;;;7.43;5.60;;;;;;;;;;5028033;28;20201;-61
2024/02/29 05:52:59;;;;;;;11.37;7.40;;;;;;;;;;5028004;28;20165;-61
2024/02/29 05:55:25;;;;;;;9.20;6.20;;;;;;;;;;5027980;28;20212;-60
2024/02/29 05:57:51;;;;;;;9.13;6.30;;;;;;;;;;5023517;28;20177;-60
2024/02/29 06:00:17;;;;;;;7.90;6.33;;;;;;;;;;5027800;28;20653;-61
2024/02/29 06:02:44;;;;;;;7.90;6.63;;;;;;;;;;5028458;28;20886;-61
2024/02/29 06:05:10;;;;;;;8.57;6.23;;;;;;;;;;5027875;28;20174;-61
2024/02/29 06:07:39;;;;;;;7.23;6.10;;;;;;;;;;5024999;28;20620;-61
2024/02/29 06:10:08;;;;;;;7.43;6.17;;;;;;;;;;5026234;28;20229;-61
2024/02/29 06:12:35;;;;;;;7.90;6.03;;;;;;;;;;5012662;28;20182;-60
2024/02/29 06:15:01;;;;;;;9.53;6.50;;;;;;;;;;5027761;28;20630;-60
2024/02/29 06:17:27;;;;;;;8.83;6.30;;;;;;;;;;5026727;28;20258;-60
2024/02/29 06:19:53;;;;;;;6.97;5.80;;;;;;;;;;5027053;28;20696;-61
2024/02/29 06:22:22;;;;;;;8.80;6.13;;;;;;;;;;5028626;28;21638;-60
2024/02/29 06:24:49;;;;;;;9.47;5.70;;;;;;;;;;5022010;28;20262;-60
2024/02/29 06:27:15;;;;;;;8.47;6.37;;;;;;;;;;5019552;28;20246;-60
2024/02/29 06:29:41;;;;;;;9.73;6.40;;;;;;;;;;5026085;28;20210;-61
2024/02/29 06:32:07;;;;;;;9.17;6.30;;;;;;;;;;5026220;28;20197;-61
2024/02/29 06:34:33;;;;;;;7.27;5.50;;;;;;;;;;5024976;28;20654;-61
2024/02/29 06:36:59;;;;;;;7.73;5.43;;;;;;;;;;5023431;28;20862;-60
2024/02/29 06:39:25;;;;;;;8.67;6.00;;;;;;;;;;5024017;28;20184;-59
2024/02/29 06:41:52;;;;;;;9.77;6.13;;;;;;;;;;5019999;28;20185;-61
2024/02/29 06:44:18;;;;;;;8.17;6.03;;;;;;;;;;5028087;28;20254;-61
2024/02/29 06:46:44;;;;;;;8.63;5.90;;;;;;;;;;5028063;28;20178;-60
2024/02/29 06:49:10;;;;;;;9.53;6.93;;;;;;;;;;5024981;28;20301;-57
2024/02/29 06:51:36;;;;;;;9.67;6.00;;;;;;;;;;5027079;28;20184;-57
2024/02/29 06:54:02;;;;;;;9.03;6.30;;;;;;;;;;5020639;28;20530;-57
2024/02/29 06:56:28;;;;;;;11.57;7.00;;;;;;;;;;5016598;28;20210;-57
2024/02/29 06:58:54;;;;;;;9.03;6.73;;;;;;;;;;5019713;28;20175;-57
2024/02/29 07:01:21;;;;;;;9.97;6.43;;;;;;;;;;5017899;28;20542;-57
2024/02/29 07:03:47;;;;;;;10.07;5.87;;;;;;;;;;5027779;28;20216;-56
2024/02/29 07:06:13;;;;;;;9.33;6.60;;;;;;;;;;5027910;28;20240;-56
2024/02/29 07:08:39;;;;;;;8.83;6.67;;;;;;;;;;5025392;28;20198;-57
2024/02/29 07:11:05;;;;;;;10.80;6.83;;;;;;;;;;5026995;28;20228;-56
2024/02/29 07:13:31;;;;;;;8.57;6.63;;;;;;;;;;5027904;28;20634;-56
2024/02/29 07:15:57;;;;;;;9.13;6.37;;;;;;;;;;5027816;28;20235;-57
2024/02/29 07:18:24;;;;;;;11.73;6.80;;;;;;;;;;5027884;28;20174;-57
2024/02/29 07:20:50;;;;;;;10.10;7.40;;;;;;;;;;5027471;28;20181;-57
2024/02/29 07:23:17;;;;;;;8.33;6.93;;;;;;;;;;5027197;28;20174;-56
2024/02/29 07:25:43;;;;;;;11.70;6.60;;;;;;;;;;5026175;28;20263;-56
2024/02/29 07:28:09;;;;;;;9.23;6.23;;;;;;;;;;5027711;28;20206;-57
2024/02/29 07:30:35;;;;;;;8.23;6.43;;;;;;;;;;5027365;28;20602;-56
2024/02/29 07:33:01;;;;;;;9.37;7.17;;;;;;;;;;5027745;28;20233;-56
2024/02/29 07:35:28;;;;;;;12.23;7.53;;;;;;;;;;5027236;28;20277;-56
2024/02/29 07:37:54;;;;;;;8.13;6.17;;;;;;;;;;5027658;28;20621;-56
2024/02/29 07:40:20;;;;;;;10.17;7.50;;;;;;;;;;5026321;28;20174;-57
2024/02/29 07:42:46;;;;;;;10.63;7.00;;;;;;;;;;5026925;28;20682;-56
2024/02/29 07:45:12;;;;;;;9.03;6.73;;;;;;;;;;5027629;28;20252;-56
2024/02/29 07:47:39;;;;;;;9.43;7.17;;;;;;;;;;5027302;28;20174;-56
2024/02/29 07:50:06;;;;;;;9.13;6.83;;;;;;;;;;5023753;28;21025;-57
2024/02/29 07:52:32;;;;;;;10.43;6.93;;;;;;;;;;5022618;28;20204;-56
2024/02/29 07:54:58;;;;;;;10.30;6.77;;;;;;;;;;5026443;28;20180;-56
2024/02/29 07:57:24;;;;;;;9.43;6.60;;;;;;;;;;5022744;28;20217;-56
2024/02/29 07:59:51;;;;;;;8.90;7.03;;;;;;;;;;5022715;28;20893;-54
2024/02/29 08:02:17;;;;;;;10.93;7.37;;;;;;;;;;5019696;28;20174;-52
2024/02/29 08:04:43;;;;;;;9.00;6.63;;;;;;;;;;5023750;28;20193;-52
2024/02/29 08:07:12;;;;;;;11.80;7.83;;;;;;;;;;5026544;28;20603;-51
2024/02/29 08:09:38;;;;;;;11.13;7.90;;;;;;;;;;5024044;28;20316;-52
2024/02/29 08:12:05;;;;;;;10.70;7.07;;;;;;;;;;5024544;28;20312;-52
2024/02/29 08:14:31;;;;;;;10.53;8.03;;;;;;;;;;5024514;28;20273;-54
2024/02/29 08:16:57;;;;;;;11.20;7.23;;;;;;;;;;5023254;28;20613;-53
2024/02/29 08:19:23;;;;;;;12.13;6.80;;;;;;;;;;5022740;28;20217;-53
2024/02/29 08:21:50;;;;;;;8.30;6.70;;;;;;;;;;5014329;28;20173;-52
2024/02/29 08:24:16;;;;;;;11.10;7.47;;;;;;;;;;5022090;28;20247;-52
2024/02/29 08:26:42;;;;;;;8.07;6.47;;;;;;;;;;5021120;28;20260;-53
2024/02/29 08:29:13;;;;;;;8.53;6.57;;;;;;;;;;5021277;28;20670;-53
2024/02/29 08:31:40;;;;;;;9.00;6.47;;;;;;;;;;5019459;28;20167;-53
2024/02/29 08:34:06;;;;;;;10.67;7.10;;;;;;;;;;5025212;28;20170;-52
2024/02/29 08:36:32;;;;;;;9.37;6.70;;;;;;;;;;5019650;28;20618;-53
2024/02/29 08:38:58;;;;;;;10.80;6.30;;;;;;;;;;5025784;28;20170;-52
2024/02/29 08:41:24;;;;;;;8.20;5.97;;;;;;;;;;5021829;28;20217;-54
2024/02/29 08:43:50;;;;;;;8.90;6.47;;;;;;;;;;5021703;28;20209;-53
2024/02/29 08:46:16;;;;;;;10.37;6.87;;;;;;;;;;5011027;28;20592;-53
2024/02/29 08:48:43;;;;;;;9.80;5.93;;;;;;;;;;5019351;28;20213;-53
2024/02/29 08:51:09;;;;;;;9.60;6.73;;;;;;;;;;5017746;28;20183;-52
2024/02/29 08:53:35;;;;;;;8.90;6.40;;;;;;;;;;5021824;28;20170;-52
2024/02/29 08:56:01;;;;;;;7.67;5.97;;;;;;;;;;5021204;28;20182;-52
2024/02/29 08:58:27;;;;;;;9.17;6.83;;;;;;;;;;5024491;28;20285;-55
2024/02/29 09:00:54;;;;;;;9.87;7.13;;;;;;;;;;5020426;28;20170;-52
2024/02/29 09:03:20;;;;;;;9.77;6.50;;;;;;;;;;5027788;28;20184;-55
2024/02/29 09:05:46;;;;;;;9.57;6.90;;;;;;;;;;5020561;28;20182;-52
2024/02/29 09:08:12;;;;;;;9.10;6.87;;;;;;;;;;5027556;28;20732;-54
2024/02/29 09:10:38;;;;;;;9.60;6.47;;;;;;;;;;5023861;28;20837;-53
2024/02/29 09:13:05;;;;;;;9.17;6.50;;;;;;;;;;5022364;28;20575;-51
2024/02/29 09:15:31;;;;;;;8.03;6.00;;;;;;;;;;5017112;28;20167;-53
2024/02/29 09:17:57;;;;;;;8.43;6.40;;;;;;;;;;5015692;28;20645;-52
2024/02/29 09:20:23;;;;;;;6.87;5.67;;;;;;;;;;5026237;28;20229;-53
2024/02/29 09:22:49;;;;;;;8.93;5.87;;;;;;;;;;5022368;28;20266;-53
2024/02/29 09:25:17;;;;;;;8.47;6.20;;;;;;;;;;5020976;28;20205;-52
2024/02/29 09:27:44;;;;;;;8.83;6.20;;;;;;;;;;5021643;28;20257;-54
2024/02/29 09:30:10;;;;;;;6.50;5.73;;;;;;;;;;5018809;28;20264;-53
2024/02/29 09:32:36;;;;;;;6.17;5.57;;;;;;;;;;5020097;28;20188;-54
2024/02/29 09:35:03;;;;;;;8.47;6.17;;;;;;;;;;5016565;28;20186;-54
2024/02/29 09:37:29;;;;;;;6.67;5.63;;;;;;;;;;5023085;28;20622;-54
2024/02/29 09:39:55;;;;;;;7.57;5.73;;;;;;;;;;5022982;28;20590;-52
2024/02/29 09:42:22;;;;;;;11.53;5.63;;;;;;;;;;5028799;28;20251;-54
2024/02/29 09:44:50;;;;;;;7.57;6.00;;;;;;;;;;5028415;28;20642;-54
2024/02/29 09:47:19;;;;;;;6.90;5.27;;;;;;;;;;5017648;28;20205;-54
2024/02/29 09:49:45;;;;;;;8.33;5.50;;;;;;;;;;5024346;28;20543;-52
2024/02/29 09:52:12;;;;;;;7.07;5.50;;;;;;;;;;5028578;28;20645;-53
2024/02/29 09:54:39;;;;;;;6.50;5.80;;;;;;;;;;5022650;28;20550;-53
2024/02/29 09:57:06;;;;;;;7.47;5.40;;;;;;;;;;5015262;28;20176;-52
2024/02/29 09:59:32;;;;;;;6.57;5.27;;;;;;;;;;5021937;28;20197;-51
2024/02/29 10:01:59;;;;;;;7.50;5.53;;;;;;;;;;5020214;28;20201;-52
2024/02/29 10:04:26;;;;;;;7.27;5.60;;;;;;;;;;5025432;28;20629;-53
2024/02/29 10:06:53;;;;;;;6.57;5.13;;;;;;;;;;5017475;28;20244;-53
2024/02/29 10:09:21;;;;;;;5.83;4.77;;;;;;;;;;5019396;28;20206;-52
2024/02/29 10:11:50;;;;;;;9.17;5.47;;;;;;;;;;5020531;28;20181;-53
2024/02/29 10:14:25;;;;;;;7.87;6.13;;;;;;;;;;5018257;28;20198;-53
2024/02/29 10:16:52;;;;;;;6.20;4.57;;;;;;;;;;5021532;28;20249;-53
2024/02/29 10:19:19;;;;;;;7.03;5.53;;;;;;;;;;5026952;28;20888;-53
2024/02/29 10:21:45;;;;;;;6.37;5.20;;;;;;;;;;5021487;28;20173;-52
2024/02/29 10:24:11;;;;;;;6.03;4.63;;;;;;;;;;5026917;28;20173;-52
2024/02/29 10:26:37;;;;;;;10.03;4.93;;;;;;;;;;5023632;28;20189;-54
2024/02/29 10:29:10;;;;;;;8.30;5.57;;;;;;;;;;5021359;28;20646;-51
2024/02/29 10:31:36;;;;;;;7.53;5.40;;;;;;;;;;5025867;28;20170;-54
2024/02/29 10:34:02;;;;;;;5.20;4.50;;;;;;;;;;5025546;28;20273;-52
2024/02/29 10:36:28;;;;;;;7.60;5.83;;;;;;;;;;5026264;28;20189;-52
2024/02/29 10:38:55;;;;;;;8.03;5.37;;;;;;;;;;5018684;28;20233;-53
2024/02/29 10:41:22;;;;;;;7.33;5.37;;;;;;;;;;5013370;28;20198;-52
2024/02/29 10:43:50;;;;;;;7.27;5.03;;;;;;;;;;5017670;28;20190;-51
2024/02/29 10:46:20;;;;;;;5.30;4.57;;;;;;;;;;5014715;28;20224;-53
2024/02/29 10:48:52;;;;;;;6.07;4.73;;;;;;;;;;5025598;28;20198;-52
2024/02/29 10:51:33;;;;;;;6.23;4.67;;;;;;;;;;5021372;28;20253;-52
2024/02/29 10:54:04;;;;;;;6.37;5.37;;;;;;;;;;5024583;28;20182;-55
2024/02/29 10:56:31;;;;;;;7.20;5.47;;;;;;;;;;5017777;28;20235;-52
2024/02/29 10:59:02;;;;;;;6.13;4.90;;;;;;;;;;5027030;28;20170;-53
2024/02/29 11:01:29;;;;;;;6.87;4.80;;;;;;;;;;5022237;28;20950;-54
2024/02/29 11:03:55;;;;;;;6.10;4.70;;;;;;;;;;5025418;28;20213;-53
2024/02/29 11:06:21;;;;;;;6.87;4.50;;;;;;;;;;5019004;28;20173;-53
2024/02/29 11:08:48;;;;;;;5.30;4.27;;;;;;;;;;5019571;28;20310;-54
2024/02/29 11:11:16;;;;;;;4.77;4.03;;;;;;;;;;5014401;28;20183;-53
2024/02/29 11:13:42;;;;;;;5.83;4.57;;;;;;;;;;5020927;28;20186;-54
2024/02/29 11:16:11;;;;;;;6.40;4.83;;;;;;;;;;5021145;28;20865;-53
2024/02/29 11:18:38;;;;;;;5.50;4.30;;;;;;;;;;5019215;28;20232;-53
2024/02/29 11:21:07;;;;;;;7.17;5.43;;;;;;;;;;5012104;28;20793;-53
2024/02/29 11:23:36;;;;;;;6.60;4.80;;;;;;;;;;5025906;28;20186;-52
2024/02/29 11:26:03;;;;;;;7.10;4.73;;;;;;;;;;5025704;28;20640;-53
2024/02/29 11:28:33;;;;;;;5.23;4.33;;;;;;;;;;5020223;28;20870;-52
2024/02/29 11:31:08;;;;;;;5.77;4.00;;;;;;;;;;5010594;28;20258;-61
2024/02/29 11:33:34;;;;;;;5.07;3.97;;;;;;;;;;5024200;28;20174;-59
2024/02/29 11:36:00;;;;;;;6.63;4.17;;;;;;;;;;5024784;28;20174;-61
2024/02/29 11:38:26;;;;;;;4.57;4.07;;;;;;;;;;5015873;28;20178;-60
2024/02/29 11:40:52;;;;;;;5.50;4.57;;;;;;;;;;5024498;28;20196;-61
2024/02/29 11:43:19;;;;;;;4.90;3.80;;;;;;;;;;5024801;28;20271;-60
2024/02/29 11:45:45;;;;;;;4.67;4.17;;;;;;;;;;5025759;28;20594;-61
2024/02/29 11:48:11;;;;;;;7.13;4.33;;;;;;;;;;5026524;28;20181;-58
2024/02/29 11:50:37;;;;;;;6.17;4.00;;;;;;;;;;5022872;28;20169;-62
2024/02/29 11:53:04;;;;;;;5.33;4.13;;;;;;;;;;5023252;28;20173;-61
2024/02/29 11:55:30;;;;;;;4.87;3.53;;;;;;;;;;5013217;28;20238;-59
2024/02/29 11:57:57;;;;;;;6.10;4.33;;;;;;;;;;5016816;28;20210;-61
2024/02/29 12:00:23;;;;;;;4.53;4.00;;;;;;;;;;5013452;28;20638;-62
2024/02/29 12:02:50;;;;;;;5.13;4.50;;;;;;;;;;5019510;28;20736;-59
2024/02/29 12:05:16;;;;;;;5.13;3.67;;;;;;;;;;5029153;28;20180;-61
2024/02/29 12:07:42;;;;;;;4.67;3.87;;;;;;;;;;5030618;28;20646;-61
2024/02/29 12:10:10;;;;;;;5.97;4.63;;;;;;;;;;5020942;28;20237;-60
2024/02/29 12:12:37;;;;;;;5.83;4.07;;;;;;;;;;5026869;28;20181;-62
2024/02/29 12:15:03;;;;;;;5.70;4.07;;;;;;;;;;5025790;28;20564;-61
2024/02/29 12:17:32;;;;;;;5.17;4.20;;;;;;;;;;5030934;28;20170;-60
2024/02/29 12:19:59;;;;;;;4.50;3.50;;;;;;;;;;5015964;28;20221;-62
2024/02/29 12:22:25;;;;;;;4.57;3.63;;;;;;;;;;5018409;28;20181;-60
2024/02/29 12:24:52;;;;;;;4.63;3.90;;;;;;;;;;5019686;28;20254;-58
2024/02/29 12:27:18;;;;;;;5.03;3.63;;;;;;;;;;5011809;28;20188;-62
2024/02/29 12:29:44;;;;;;;6.97;4.13;;;;;;;;;;5025416;28;20206;-61
2024/02/29 12:32:10;;;;;;;4.40;3.63;;;;;;;;;;5020422;28;20174;-60
2024/02/29 12:34:37;;;;;;;5.63;4.27;;;;;;;;;;5021691;28;20282;-61
2024/02/29 12:37:03;;;;;;;4.53;3.73;;;;;;;;;;5013759;28;20635;-62
2024/02/29 12:39:32;;;;;;;5.00;4.33;;;;;;;;;;5020575;28;20271;-57
2024/02/29 12:41:58;;;;;;;7.37;3.57;;;;;;;;;;5019001;28;20181;-62
2024/02/29 12:44:25;;;;;;;5.63;4.03;;;;;;;;;;5021643;28;20174;-61
2024/02/29 12:46:57;;;;;;;5.77;4.07;;;;;;;;;;5015932;28;20263;-61
2024/02/29 12:49:23;;;;;;;4.40;3.30;;;;;;;;;;5024258;28;20695;-62
2024/02/29 12:51:49;;;;;;;4.73;3.93;;;;;;;;;;5021705;28;20598;-54
2024/02/29 12:54:15;;;;;;;4.90;4.20;;;;;;;;;;5018603;28;20718;-55
2024/02/29 12:56:41;;;;;;;4.60;4.10;;;;;;;;;;5016428;28;20246;-53
2024/02/29 12:59:08;;;;;;;6.90;4.37;;;;;;;;;;5020041;28;20186;-53
2024/02/29 13:01:37;;;;;;;4.50;3.63;;;;;;;;;;5023341;28;20209;-53
2024/02/29 13:04:03;;;;;;;6.57;4.33;;;;;;;;;;5031352;28;20265;-53
2024/02/29 13:06:31;;;;;;;4.67;3.90;;;;;;;;;;5014889;28;20257;-53
2024/02/29 13:08:57;;;;;;;5.47;4.57;;;;;;;;;;5024471;28;20200;-54
2024/02/29 13:11:23;;;;;;;7.57;4.43;;;;;;;;;;5027518;28;20277;-54
2024/02/29 13:13:49;;;;;;;5.53;4.00;;;;;;;;;;5023919;28;20616;-54
2024/02/29 13:16:15;;;;;;;4.33;3.93;;;;;;;;;;5025537;28;20488;-53
2024/02/29 13:18:41;;;;;;;4.30;3.80;;;;;;;;;;5016764;28;20229;-55
2024/02/29 13:21:07;;;;;;;4.97;3.90;;;;;;;;;;5028736;28;20266;-52
2024/02/29 13:23:33;;;;;;;3.80;3.40;;;;;;;;;;5020729;28;20273;-52
2024/02/29 13:25:59;;;;;;;4.00;3.10;;;;;;;;;;5027387;28;20182;-52
2024/02/29 13:28:25;;;;;;;4.03;3.17;;;;;;;;;;5029083;28;20708;-53
2024/02/29 13:30:51;;;;;;;4.23;3.50;;;;;;;;;;5028044;28;20208;-55
2024/02/29 13:33:18;;;;;;;5.10;3.43;;;;;;;;;;5020679;28;20170;-53
2024/02/29 13:35:44;;;;;;;5.33;3.70;;;;;;;;;;5018265;28;20264;-53
2024/02/29 13:38:10;;;;;;;4.80;3.23;;;;;;;;;;5014339;28;20273;-53
2024/02/29 13:40:36;;;;;;;4.67;3.57;;;;;;;;;;5027770;28;20210;-57
2024/02/29 13:43:02;;;;;;;5.40;4.10;;;;;;;;;;5029895;28;20233;-53
2024/02/29 13:45:30;;;;;;;5.77;3.83;;;;;;;;;;5029431;28;20174;-53
2024/02/29 13:47:56;;;;;;;4.23;3.63;;;;;;;;;;5029860;28;20253;-54
2024/02/29 13:50:22;;;;;;;6.23;3.50;;;;;;;;;;5029240;28;20814;-53
2024/02/29 13:52:49;;;;;;;5.03;3.67;;;;;;;;;;5029432;28;20235;-52
2024/02/29 13:55:15;;;;;;;3.63;3.17;;;;;;;;;;5026350;28;20174;-53
2024/02/29 13:57:41;;;;;;;3.73;3.33;;;;;;;;;;5009419;28;20158;-52
2024/02/29 14:00:08;;;;;;;4.33;3.27;;;;;;;;;;5029263;28;20586;-53
2024/02/29 14:02:34;;;;;;;3.47;2.83;;;;;;;;;;5028960;28;20208;-53
2024/02/29 14:05:00;;;;;;;4.57;3.37;;;;;;;;;;5028683;28;20172;-54
2024/02/29 14:07:27;;;;;;;3.40;3.07;;;;;;;;;;5029095;28;20205;-53
2024/02/29 14:09:53;;;;;;;4.43;2.93;;;;;;;;;;5027685;28;20205;-53
2024/02/29 14:12:21;;;;;;;3.97;3.30;;;;;;;;;;5028670;28;20170;-54
2024/02/29 14:14:47;;;;;;;4.87;3.70;;;;;;;;;;5028560;28;20661;-53
2024/02/29 14:17:13;;;;;;;6.57;3.40;;;;;;;;;;5028929;28;20186;-53
2024/02/29 14:19:39;;;;;;;3.87;2.80;;;;;;;;;;5028423;28;20314;-52
2024/02/29 14:22:05;;;;;;;4.63;2.80;;;;;;;;;;5028926;28;20186;-52
2024/02/29 14:24:32;;;;;;;3.60;3.07;;;;;;;;;;5027081;28;20173;-57
2024/02/29 14:26:58;;;;;;;3.00;2.70;;;;;;;;;;5028401;28;20170;-53
2024/02/29 14:29:24;;;;;;;5.03;2.90;;;;;;;;;;5028956;28;20689;-53
2024/02/29 14:31:50;;;;;;;3.70;2.67;;;;;;;;;;5026388;28;20189;-54
2024/02/29 14:34:16;;;;;;;3.30;3.00;;;;;;;;;;5020299;28;20635;-52
2024/02/29 14:36:42;;;;;;;5.17;2.90;;;;;;;;;;5026371;28;20174;-55